sensor_id;sensor_type;location;lat;lon;timestamp;P1;durP1;ratioP1;P2;durP2;ratioP2
4102;SDS011;2065;49.790;9.620;2022-07-29T00:00:57;2.57;;;2.37;;
4102;SDS011;2065;49.790;9.620;2022-07-29T00:03:24;3.00;;;2.70;;
4102;SDS011;2065;49.790;9.620;2022-07-29T00:05:51;4.53;;;2.43;;
4102;SDS011;2065;49.790;9.620;2022-07-29T00:08:42;2.70;;;2.20;;
4102;SDS011;2065;49.790;9.620;2022-07-29T00:11:59;6.53;;;2.60;;
4102;SDS011;2065;49.790;9.620;2022-07-29T00:14:41;2.20;;;2.00;;
4102;SDS011;2065;49.790;9.620;2022-07-29T00:17:09;3.70;;;2.70;;
4102;SDS011;2065;49.790;9.620;2022-07-29T00:19:36;5.03;;;2.50;;
4102;SDS011;2065;49.790;9.620;2022-07-29T00:22:03;7.87;;;2.73;;
4102;SDS011;2065;49.790;9.620;2022-07-29T00:24:30;6.90;;;2.70;;
4102;SDS011;2065;49.790;9.620;2022-07-29T00:26:57;4.53;;;2.57;;
4102;SDS011;2065;49.790;9.620;2022-07-29T00:29:25;3.00;;;2.60;;
4102;SDS011;2065;49.790;9.620;2022-07-29T00:31:52;6.93;;;2.67;;
4102;SDS011;2065;49.790;9.620;2022-07-29T00:38:27;2.70;;;2.50;;
4102;SDS011;2065;49.790;9.620;2022-07-29T00:40:54;5.60;;;3.10;;
4102;SDS011;2065;49.790;9.620;2022-07-29T00:43:21;3.07;;;2.80;;
4102;SDS011;2065;49.790;9.620;2022-07-29T00:45:48;3.20;;;2.37;;
4102;SDS011;2065;49.790;9.620;2022-07-29T00:48:15;2.63;;;2.43;;
4102;SDS011;2065;49.790;9.620;2022-07-29T00:50:42;4.60;;;2.53;;
4102;SDS011;2065;49.790;9.620;2022-07-29T00:53:09;3.30;;;2.80;;
4102;SDS011;2065;49.790;9.620;2022-07-29T00:55:40;2.87;;;2.67;;
4102;SDS011;2065;49.790;9.620;2022-07-29T01:00:59;4.40;;;2.37;;
4102;SDS011;2065;49.790;9.620;2022-07-29T01:03:26;5.87;;;2.50;;
4102;SDS011;2065;49.790;9.620;2022-07-29T01:05:53;2.80;;;2.60;;
4102;SDS011;2065;49.790;9.620;2022-07-29T01:08:21;6.50;;;2.73;;
4102;SDS011;2065;49.790;9.620;2022-07-29T01:10:50;8.23;;;3.30;;
4102;SDS011;2065;49.790;9.620;2022-07-29T01:13:18;4.00;;;3.00;;
4102;SDS011;2065;49.790;9.620;2022-07-29T01:15:47;3.07;;;2.77;;
4102;SDS011;2065;49.790;9.620;2022-07-29T01:18:22;3.43;;;2.60;;
4102;SDS011;2065;49.790;9.620;2022-07-29T01:20:58;4.20;;;2.70;;
4102;SDS011;2065;49.790;9.620;2022-07-29T01:23:40;3.30;;;3.00;;
4102;SDS011;2065;49.790;9.620;2022-07-29T01:26:31;4.50;;;2.93;;
4102;SDS011;2065;49.790;9.620;2022-07-29T01:36:57;3.10;;;2.57;;
4102;SDS011;2065;49.790;9.620;2022-07-29T01:42:50;6.33;;;3.00;;
4102;SDS011;2065;49.790;9.620;2022-07-29T01:45:21;3.47;;;3.10;;
4102;SDS011;2065;49.790;9.620;2022-07-29T01:47:54;5.70;;;2.87;;
4102;SDS011;2065;49.790;9.620;2022-07-29T01:50:29;7.07;;;3.60;;
4102;SDS011;2065;49.790;9.620;2022-07-29T01:53:02;7.63;;;3.13;;
4102;SDS011;2065;49.790;9.620;2022-07-29T01:55:34;3.40;;;3.10;;
4102;SDS011;2065;49.790;9.620;2022-07-29T01:58:05;6.93;;;3.67;;
4102;SDS011;2065;49.790;9.620;2022-07-29T02:00:33;3.30;;;3.00;;
4102;SDS011;2065;49.790;9.620;2022-07-29T02:07:09;3.50;;;2.97;;
4102;SDS011;2065;49.790;9.620;2022-07-29T02:09:41;3.00;;;2.73;;
4102;SDS011;2065;49.790;9.620;2022-07-29T02:12:09;4.43;;;2.70;;
4102;SDS011;2065;49.790;9.620;2022-07-29T02:14:38;3.77;;;2.97;;
4102;SDS011;2065;49.790;9.620;2022-07-29T02:18:22;8.80;;;3.60;;
4102;SDS011;2065;49.790;9.620;2022-07-29T02:20:52;5.00;;;3.40;;
4102;SDS011;2065;49.790;9.620;2022-07-29T02:23:22;6.23;;;4.43;;
4102;SDS011;2065;49.790;9.620;2022-07-29T02:25:53;5.77;;;3.37;;
4102;SDS011;2065;49.790;9.620;2022-07-29T02:28:21;3.17;;;2.87;;
4102;SDS011;2065;49.790;9.620;2022-07-29T02:30:50;4.63;;;3.80;;
4102;SDS011;2065;49.790;9.620;2022-07-29T02:37:25;3.73;;;2.70;;
4102;SDS011;2065;49.790;9.620;2022-07-29T02:39:54;3.40;;;3.10;;
4102;SDS011;2065;49.790;9.620;2022-07-29T02:42:23;4.80;;;3.10;;
4102;SDS011;2065;49.790;9.620;2022-07-29T02:44:52;4.50;;;3.17;;
4102;SDS011;2065;49.790;9.620;2022-07-29T02:47:20;8.10;;;3.50;;
4102;SDS011;2065;49.790;9.620;2022-07-29T02:49:52;5.80;;;3.90;;
4102;SDS011;2065;49.790;9.620;2022-07-29T02:52:24;4.43;;;3.37;;
4102;SDS011;2065;49.790;9.620;2022-07-29T02:54:55;5.40;;;4.10;;
4102;SDS011;2065;49.790;9.620;2022-07-29T02:57:30;5.13;;;3.70;;
4102;SDS011;2065;49.790;9.620;2022-07-29T03:00:00;4.70;;;3.27;;
4102;SDS011;2065;49.790;9.620;2022-07-29T03:02:31;5.07;;;3.30;;
4102;SDS011;2065;49.790;9.620;2022-07-29T03:09:12;4.10;;;3.60;;
4102;SDS011;2065;49.790;9.620;2022-07-29T03:11:40;6.37;;;3.40;;
4102;SDS011;2065;49.790;9.620;2022-07-29T03:18:17;4.83;;;4.00;;
4102;SDS011;2065;49.790;9.620;2022-07-29T03:20:44;4.70;;;3.70;;
4102;SDS011;2065;49.790;9.620;2022-07-29T03:23:11;4.03;;;3.23;;
4102;SDS011;2065;49.790;9.620;2022-07-29T03:25:44;5.20;;;3.70;;
4102;SDS011;2065;49.790;9.620;2022-07-29T03:28:11;4.63;;;2.90;;
4102;SDS011;2065;49.790;9.620;2022-07-29T03:30:38;3.70;;;2.63;;
4102;SDS011;2065;49.790;9.620;2022-07-29T03:41:20;4.30;;;3.00;;
4102;SDS011;2065;49.790;9.620;2022-07-29T03:43:50;4.63;;;3.47;;
4102;SDS011;2065;49.790;9.620;2022-07-29T03:46:20;4.43;;;2.73;;
4102;SDS011;2065;49.790;9.620;2022-07-29T03:48:49;3.87;;;3.13;;
4102;SDS011;2065;49.790;9.620;2022-07-29T03:51:19;5.10;;;3.43;;
4102;SDS011;2065;49.790;9.620;2022-07-29T04:00:47;7.13;;;3.70;;
4102;SDS011;2065;49.790;9.620;2022-07-29T04:03:14;3.60;;;3.30;;
4102;SDS011;2065;49.790;9.620;2022-07-29T04:05:41;4.67;;;3.80;;
4102;SDS011;2065;49.790;9.620;2022-07-29T04:08:08;7.17;;;3.77;;
4102;SDS011;2065;49.790;9.620;2022-07-29T04:10:35;3.63;;;3.33;;
4102;SDS011;2065;49.790;9.620;2022-07-29T04:13:03;6.87;;;3.53;;
4102;SDS011;2065;49.790;9.620;2022-07-29T04:15:32;4.50;;;3.90;;
4102;SDS011;2065;49.790;9.620;2022-07-29T04:17:59;5.73;;;3.50;;
4102;SDS011;2065;49.790;9.620;2022-07-29T04:20:27;7.37;;;3.17;;
4102;SDS011;2065;49.790;9.620;2022-07-29T04:22:54;4.27;;;3.23;;
4102;SDS011;2065;49.790;9.620;2022-07-29T04:25:22;3.73;;;2.87;;
4102;SDS011;2065;49.790;9.620;2022-07-29T04:27:49;3.73;;;3.43;;
4102;SDS011;2065;49.790;9.620;2022-07-29T04:30:28;4.87;;;3.30;;
4102;SDS011;2065;49.790;9.620;2022-07-29T04:32:57;4.30;;;3.17;;
4102;SDS011;2065;49.790;9.620;2022-07-29T04:35:24;4.90;;;3.00;;
4102;SDS011;2065;49.790;9.620;2022-07-29T04:37:51;4.00;;;2.90;;
4102;SDS011;2065;49.790;9.620;2022-07-29T04:40:18;3.63;;;3.00;;
4102;SDS011;2065;49.790;9.620;2022-07-29T04:42:45;3.77;;;3.07;;
4102;SDS011;2065;49.790;9.620;2022-07-29T04:45:12;3.23;;;2.93;;
4102;SDS011;2065;49.790;9.620;2022-07-29T04:47:39;3.57;;;3.27;;
4102;SDS011;2065;49.790;9.620;2022-07-29T04:53:01;4.27;;;3.20;;
4102;SDS011;2065;49.790;9.620;2022-07-29T04:55:27;3.43;;;3.13;;
4102;SDS011;2065;49.790;9.620;2022-07-29T04:57:55;4.00;;;3.50;;
4102;SDS011;2065;49.790;9.620;2022-07-29T05:00:22;5.60;;;3.03;;
4102;SDS011;2065;49.790;9.620;2022-07-29T05:02:49;5.37;;;3.70;;
4102;SDS011;2065;49.790;9.620;2022-07-29T05:05:16;5.73;;;2.83;;
4102;SDS011;2065;49.790;9.620;2022-07-29T05:07:45;4.30;;;3.40;;
4102;SDS011;2065;49.790;9.620;2022-07-29T05:10:12;4.70;;;3.27;;
4102;SDS011;2065;49.790;9.620;2022-07-29T05:12:39;4.70;;;3.17;;
4102;SDS011;2065;49.790;9.620;2022-07-29T05:15:06;3.87;;;3.47;;
4102;SDS011;2065;49.790;9.620;2022-07-29T05:17:34;8.00;;;3.90;;
4102;SDS011;2065;49.790;9.620;2022-07-29T05:20:00;5.10;;;3.70;;
4102;SDS011;2065;49.790;9.620;2022-07-29T05:22:54;4.27;;;3.63;;
4102;SDS011;2065;49.790;9.620;2022-07-29T05:28:39;6.67;;;3.70;;
4102;SDS011;2065;49.790;9.620;2022-07-29T05:35:14;3.83;;;3.37;;
4102;SDS011;2065;49.790;9.620;2022-07-29T05:37:41;9.70;;;3.90;;
4102;SDS011;2065;49.790;9.620;2022-07-29T05:43:01;4.47;;;3.57;;
4102;SDS011;2065;49.790;9.620;2022-07-29T05:45:28;5.33;;;3.87;;
4102;SDS011;2065;49.790;9.620;2022-07-29T05:47:55;8.50;;;4.00;;
4102;SDS011;2065;49.790;9.620;2022-07-29T05:50:23;4.60;;;3.30;;
4102;SDS011;2065;49.790;9.620;2022-07-29T05:52:50;3.80;;;3.50;;
4102;SDS011;2065;49.790;9.620;2022-07-29T06:02:42;4.17;;;3.77;;
4102;SDS011;2065;49.790;9.620;2022-07-29T06:05:09;3.70;;;3.40;;
4102;SDS011;2065;49.790;9.620;2022-07-29T06:11:43;6.20;;;3.27;;
4102;SDS011;2065;49.790;9.620;2022-07-29T06:14:13;5.40;;;3.57;;
4102;SDS011;2065;49.790;9.620;2022-07-29T06:16:41;8.50;;;3.33;;
4102;SDS011;2065;49.790;9.620;2022-07-29T06:19:09;7.60;;;3.23;;
4102;SDS011;2065;49.790;9.620;2022-07-29T06:24:54;4.57;;;3.57;;
4102;SDS011;2065;49.790;9.620;2022-07-29T06:27:21;5.33;;;3.40;;
4102;SDS011;2065;49.790;9.620;2022-07-29T06:29:48;5.33;;;3.03;;
4102;SDS011;2065;49.790;9.620;2022-07-29T06:32:14;6.87;;;3.60;;
4102;SDS011;2065;49.790;9.620;2022-07-29T06:34:43;3.10;;;2.80;;
4102;SDS011;2065;49.790;9.620;2022-07-29T06:37:10;6.27;;;3.13;;
4102;SDS011;2065;49.790;9.620;2022-07-29T06:39:37;11.80;;;3.60;;
4102;SDS011;2065;49.790;9.620;2022-07-29T06:42:04;9.17;;;3.50;;
4102;SDS011;2065;49.790;9.620;2022-07-29T06:44:31;6.27;;;2.97;;
4102;SDS011;2065;49.790;9.620;2022-07-29T06:46:59;12.10;;;3.47;;
4102;SDS011;2065;49.790;9.620;2022-07-29T06:49:26;5.87;;;4.53;;
4102;SDS011;2065;49.790;9.620;2022-07-29T06:51:55;8.00;;;3.53;;
4102;SDS011;2065;49.790;9.620;2022-07-29T06:54:22;6.40;;;3.00;;
4102;SDS011;2065;49.790;9.620;2022-07-29T07:00:58;6.40;;;3.30;;
4102;SDS011;2065;49.790;9.620;2022-07-29T07:03:27;5.60;;;3.23;;
4102;SDS011;2065;49.790;9.620;2022-07-29T07:05:54;9.90;;;3.57;;
4102;SDS011;2065;49.790;9.620;2022-07-29T07:08:23;9.27;;;3.63;;
4102;SDS011;2065;49.790;9.620;2022-07-29T07:10:50;10.70;;;3.00;;
4102;SDS011;2065;49.790;9.620;2022-07-29T07:13:17;5.40;;;3.13;;
4102;SDS011;2065;49.790;9.620;2022-07-29T07:15:45;4.43;;;2.93;;
4102;SDS011;2065;49.790;9.620;2022-07-29T07:18:13;5.63;;;3.17;;
4102;SDS011;2065;49.790;9.620;2022-07-29T07:20:41;5.40;;;2.83;;
4102;SDS011;2065;49.790;9.620;2022-07-29T07:27:16;3.83;;;2.93;;
4102;SDS011;2065;49.790;9.620;2022-07-29T07:37:09;3.10;;;2.60;;
4102;SDS011;2065;49.790;9.620;2022-07-29T07:39:36;6.33;;;3.27;;
4102;SDS011;2065;49.790;9.620;2022-07-29T07:42:03;8.77;;;3.20;;
4102;SDS011;2065;49.790;9.620;2022-07-29T07:44:31;3.20;;;2.90;;
4102;SDS011;2065;49.790;9.620;2022-07-29T07:46:58;6.77;;;3.40;;
4102;SDS011;2065;49.790;9.620;2022-07-29T08:00:10;6.53;;;3.00;;
4102;SDS011;2065;49.790;9.620;2022-07-29T08:03:03;5.40;;;3.27;;
4102;SDS011;2065;49.790;9.620;2022-07-29T08:05:30;5.60;;;2.80;;
4102;SDS011;2065;49.790;9.620;2022-07-29T08:07:57;5.07;;;3.13;;
4102;SDS011;2065;49.790;9.620;2022-07-29T08:10:24;4.27;;;2.63;;
4102;SDS011;2065;49.790;9.620;2022-07-29T08:13:09;9.00;;;2.97;;
4102;SDS011;2065;49.790;9.620;2022-07-29T08:15:39;6.00;;;2.97;;
4102;SDS011;2065;49.790;9.620;2022-07-29T08:21:00;4.27;;;2.90;;
4102;SDS011;2065;49.790;9.620;2022-07-29T08:27:03;7.83;;;3.00;;
4102;SDS011;2065;49.790;9.620;2022-07-29T08:29:30;6.57;;;3.30;;
4102;SDS011;2065;49.790;9.620;2022-07-29T08:31:58;5.80;;;3.57;;
4102;SDS011;2065;49.790;9.620;2022-07-29T08:34:25;8.83;;;3.23;;
4102;SDS011;2065;49.790;9.620;2022-07-29T08:36:52;8.10;;;3.33;;
4102;SDS011;2065;49.790;9.620;2022-07-29T08:39:19;11.00;;;4.13;;
4102;SDS011;2065;49.790;9.620;2022-07-29T08:41:46;4.40;;;3.37;;
4102;SDS011;2065;49.790;9.620;2022-07-29T08:44:17;7.57;;;3.07;;
4102;SDS011;2065;49.790;9.620;2022-07-29T08:46:44;5.80;;;3.20;;
4102;SDS011;2065;49.790;9.620;2022-07-29T08:49:13;4.40;;;3.73;;
4102;SDS011;2065;49.790;9.620;2022-07-29T08:51:40;6.23;;;3.10;;
4102;SDS011;2065;49.790;9.620;2022-07-29T08:56:59;6.40;;;3.27;;
4102;SDS011;2065;49.790;9.620;2022-07-29T08:59:28;5.93;;;3.30;;
4102;SDS011;2065;49.790;9.620;2022-07-29T09:01:59;5.53;;;3.43;;
4102;SDS011;2065;49.790;9.620;2022-07-29T09:04:30;4.20;;;2.90;;
4102;SDS011;2065;49.790;9.620;2022-07-29T09:07:00;5.67;;;3.00;;
4102;SDS011;2065;49.790;9.620;2022-07-29T09:12:49;8.93;;;3.00;;
4102;SDS011;2065;49.790;9.620;2022-07-29T09:15:17;5.40;;;2.87;;
4102;SDS011;2065;49.790;9.620;2022-07-29T09:17:45;5.37;;;3.47;;
4102;SDS011;2065;49.790;9.620;2022-07-29T09:20:18;6.80;;;2.83;;
4102;SDS011;2065;49.790;9.620;2022-07-29T09:22:47;4.27;;;3.37;;
4102;SDS011;2065;49.790;9.620;2022-07-29T09:25:14;5.03;;;3.43;;
4102;SDS011;2065;49.790;9.620;2022-07-29T09:28:04;6.07;;;3.40;;
4102;SDS011;2065;49.790;9.620;2022-07-29T09:30:58;6.60;;;3.10;;
4102;SDS011;2065;49.790;9.620;2022-07-29T09:33:32;4.97;;;3.17;;
4102;SDS011;2065;49.790;9.620;2022-07-29T09:36:04;6.53;;;3.30;;
4102;SDS011;2065;49.790;9.620;2022-07-29T09:38:57;6.73;;;3.27;;
4102;SDS011;2065;49.790;9.620;2022-07-29T09:41:25;7.20;;;3.30;;
4102;SDS011;2065;49.790;9.620;2022-07-29T09:43:54;4.80;;;3.00;;
4102;SDS011;2065;49.790;9.620;2022-07-29T09:46:21;5.43;;;4.93;;
4102;SDS011;2065;49.790;9.620;2022-07-29T09:49:05;4.97;;;3.67;;
4102;SDS011;2065;49.790;9.620;2022-07-29T09:51:34;6.83;;;3.20;;
4102;SDS011;2065;49.790;9.620;2022-07-29T09:54:01;3.50;;;3.20;;
4102;SDS011;2065;49.790;9.620;2022-07-29T09:56:53;4.27;;;3.40;;
4102;SDS011;2065;49.790;9.620;2022-07-29T09:59:21;4.37;;;3.20;;
4102;SDS011;2065;49.790;9.620;2022-07-29T10:01:51;3.20;;;2.93;;
4102;SDS011;2065;49.790;9.620;2022-07-29T10:04:19;3.57;;;3.27;;
4102;SDS011;2065;49.790;9.620;2022-07-29T10:06:57;4.27;;;3.57;;
4102;SDS011;2065;49.790;9.620;2022-07-29T10:09:24;6.43;;;3.07;;
4102;SDS011;2065;49.790;9.620;2022-07-29T10:12:08;4.20;;;3.13;;
4102;SDS011;2065;49.790;9.620;2022-07-29T10:15:01;4.50;;;3.57;;
4102;SDS011;2065;49.790;9.620;2022-07-29T10:17:28;4.53;;;3.23;;
4102;SDS011;2065;49.790;9.620;2022-07-29T10:19:55;6.23;;;2.90;;
4102;SDS011;2065;49.790;9.620;2022-07-29T10:22:24;5.13;;;3.80;;
4102;SDS011;2065;49.790;9.620;2022-07-29T10:24:51;3.63;;;3.00;;
4102;SDS011;2065;49.790;9.620;2022-07-29T10:27:18;4.43;;;2.90;;
4102;SDS011;2065;49.790;9.620;2022-07-29T10:32:54;13.23;;;3.67;;
4102;SDS011;2065;49.790;9.620;2022-07-29T10:35:42;7.57;;;3.60;;
4102;SDS011;2065;49.790;9.620;2022-07-29T10:38:26;8.50;;;3.70;;
4102;SDS011;2065;49.790;9.620;2022-07-29T10:41:08;3.10;;;2.53;;
4102;SDS011;2065;49.790;9.620;2022-07-29T10:43:54;3.57;;;3.27;;
4102;SDS011;2065;49.790;9.620;2022-07-29T10:46:24;4.50;;;3.20;;
4102;SDS011;2065;49.790;9.620;2022-07-29T10:49:04;4.40;;;3.07;;
4102;SDS011;2065;49.790;9.620;2022-07-29T10:51:54;3.40;;;2.70;;
4102;SDS011;2065;49.790;9.620;2022-07-29T11:06:18;7.57;;;3.10;;
4102;SDS011;2065;49.790;9.620;2022-07-29T11:19:28;3.00;;;2.80;;
4102;SDS011;2065;49.790;9.620;2022-07-29T11:21:56;2.83;;;2.50;;
4102;SDS011;2065;49.790;9.620;2022-07-29T11:24:24;3.83;;;3.53;;
4102;SDS011;2065;49.790;9.620;2022-07-29T11:27:06;2.63;;;2.17;;
4102;SDS011;2065;49.790;9.620;2022-07-29T11:29:47;3.83;;;2.87;;
4102;SDS011;2065;49.790;9.620;2022-07-29T11:32:20;2.53;;;2.33;;
4102;SDS011;2065;49.790;9.620;2022-07-29T11:37:39;2.60;;;2.40;;
4102;SDS011;2065;49.790;9.620;2022-07-29T11:40:16;3.30;;;2.50;;
4102;SDS011;2065;49.790;9.620;2022-07-29T11:42:45;3.77;;;2.73;;
4102;SDS011;2065;49.790;9.620;2022-07-29T11:45:14;3.33;;;3.03;;
4102;SDS011;2065;49.790;9.620;2022-07-29T11:51:26;6.83;;;3.10;;
4102;SDS011;2065;49.790;9.620;2022-07-29T11:53:53;3.53;;;2.63;;
4102;SDS011;2065;49.790;9.620;2022-07-29T12:00:30;4.80;;;3.17;;
4102;SDS011;2065;49.790;9.620;2022-07-29T12:02:58;3.00;;;2.80;;
4102;SDS011;2065;49.790;9.620;2022-07-29T12:05:30;4.53;;;3.20;;
4102;SDS011;2065;49.790;9.620;2022-07-29T12:11:57;4.00;;;3.70;;
4102;SDS011;2065;49.790;9.620;2022-07-29T12:14:25;3.47;;;3.17;;
4102;SDS011;2065;49.790;9.620;2022-07-29T12:16:53;3.90;;;2.80;;
4102;SDS011;2065;49.790;9.620;2022-07-29T12:19:20;2.97;;;2.77;;
4102;SDS011;2065;49.790;9.620;2022-07-29T12:21:48;3.23;;;3.03;;
4102;SDS011;2065;49.790;9.620;2022-07-29T12:24:16;3.00;;;2.43;;
4102;SDS011;2065;49.790;9.620;2022-07-29T12:26:51;3.93;;;3.20;;
4102;SDS011;2065;49.790;9.620;2022-07-29T12:29:20;3.23;;;2.90;;
4102;SDS011;2065;49.790;9.620;2022-07-29T12:31:51;2.90;;;2.70;;
4102;SDS011;2065;49.790;9.620;2022-07-29T12:34:20;3.57;;;3.33;;
4102;SDS011;2065;49.790;9.620;2022-07-29T12:36:49;3.70;;;3.37;;
4102;SDS011;2065;49.790;9.620;2022-07-29T12:39:17;3.30;;;3.00;;
4102;SDS011;2065;49.790;9.620;2022-07-29T12:41:44;3.60;;;3.30;;
4102;SDS011;2065;49.790;9.620;2022-07-29T12:44:11;3.60;;;3.40;;
4102;SDS011;2065;49.790;9.620;2022-07-29T12:47:29;3.90;;;3.10;;
4102;SDS011;2065;49.790;9.620;2022-07-29T12:52:43;3.57;;;3.20;;
4102;SDS011;2065;49.790;9.620;2022-07-29T12:55:11;4.30;;;3.50;;
4102;SDS011;2065;49.790;9.620;2022-07-29T12:57:44;3.20;;;3.00;;
4102;SDS011;2065;49.790;9.620;2022-07-29T13:00:13;6.57;;;3.83;;
4102;SDS011;2065;49.790;9.620;2022-07-29T13:07:15;4.80;;;4.00;;
4102;SDS011;2065;49.790;9.620;2022-07-29T13:10:40;7.33;;;4.20;;
4102;SDS011;2065;49.790;9.620;2022-07-29T13:21:10;4.23;;;3.80;;
4102;SDS011;2065;49.790;9.620;2022-07-29T13:23:38;5.00;;;4.40;;
4102;SDS011;2065;49.790;9.620;2022-07-29T13:26:05;5.57;;;3.97;;
4102;SDS011;2065;49.790;9.620;2022-07-29T13:28:33;4.67;;;4.27;;
4102;SDS011;2065;49.790;9.620;2022-07-29T13:31:00;7.67;;;4.57;;
4102;SDS011;2065;49.790;9.620;2022-07-29T13:33:28;3.83;;;3.60;;
4102;SDS011;2065;49.790;9.620;2022-07-29T13:35:55;7.10;;;4.20;;
4102;SDS011;2065;49.790;9.620;2022-07-29T13:38:23;5.33;;;3.90;;
4102;SDS011;2065;49.790;9.620;2022-07-29T13:40:50;4.33;;;3.93;;
4102;SDS011;2065;49.790;9.620;2022-07-29T13:43:17;4.80;;;4.40;;
4102;SDS011;2065;49.790;9.620;2022-07-29T13:45:44;5.10;;;3.90;;
4102;SDS011;2065;49.790;9.620;2022-07-29T13:48:11;5.37;;;3.83;;
4102;SDS011;2065;49.790;9.620;2022-07-29T13:50:38;4.77;;;3.93;;
4102;SDS011;2065;49.790;9.620;2022-07-29T13:53:05;5.70;;;4.20;;
4102;SDS011;2065;49.790;9.620;2022-07-29T13:55:33;6.53;;;3.90;;
4102;SDS011;2065;49.790;9.620;2022-07-29T13:58:50;8.03;;;4.40;;
4102;SDS011;2065;49.790;9.620;2022-07-29T14:01:17;6.00;;;4.30;;
4102;SDS011;2065;49.790;9.620;2022-07-29T14:03:44;5.90;;;4.37;;
4102;SDS011;2065;49.790;9.620;2022-07-29T14:06:11;6.43;;;4.80;;
4102;SDS011;2065;49.790;9.620;2022-07-29T14:16:29;5.13;;;4.63;;
4102;SDS011;2065;49.790;9.620;2022-07-29T14:18:56;5.53;;;4.97;;
4102;SDS011;2065;49.790;9.620;2022-07-29T14:21:23;5.10;;;4.60;;
4102;SDS011;2065;49.790;9.620;2022-07-29T14:23:51;6.30;;;4.33;;
4102;SDS011;2065;49.790;9.620;2022-07-29T14:26:19;6.10;;;5.50;;
4102;SDS011;2065;49.790;9.620;2022-07-29T14:28:47;5.00;;;4.20;;
4102;SDS011;2065;49.790;9.620;2022-07-29T14:31:14;5.10;;;4.53;;
4102;SDS011;2065;49.790;9.620;2022-07-29T14:33:42;5.90;;;5.33;;
4102;SDS011;2065;49.790;9.620;2022-07-29T14:36:09;8.27;;;5.27;;
4102;SDS011;2065;49.790;9.620;2022-07-29T14:47:40;6.17;;;5.57;;
4102;SDS011;2065;49.790;9.620;2022-07-29T14:50:09;6.13;;;5.40;;
4102;SDS011;2065;49.790;9.620;2022-07-29T14:52:36;5.37;;;4.87;;
4102;SDS011;2065;49.790;9.620;2022-07-29T14:55:03;4.73;;;4.30;;
4102;SDS011;2065;49.790;9.620;2022-07-29T14:57:31;5.27;;;4.83;;
4102;SDS011;2065;49.790;9.620;2022-07-29T15:00:47;5.73;;;4.67;;
4102;SDS011;2065;49.790;9.620;2022-07-29T15:03:14;4.80;;;4.40;;
4102;SDS011;2065;49.790;9.620;2022-07-29T15:05:43;5.40;;;4.90;;
4102;SDS011;2065;49.790;9.620;2022-07-29T15:08:10;4.13;;;3.80;;
4102;SDS011;2065;49.790;9.620;2022-07-29T15:10:37;5.57;;;4.77;;
4102;SDS011;2065;49.790;9.620;2022-07-29T15:13:04;5.00;;;4.60;;
4102;SDS011;2065;49.790;9.620;2022-07-29T15:15:31;4.53;;;4.00;;
4102;SDS011;2065;49.790;9.620;2022-07-29T15:17:58;5.50;;;4.90;;
4102;SDS011;2065;49.790;9.620;2022-07-29T15:20:24;5.87;;;4.93;;
4102;SDS011;2065;49.790;9.620;2022-07-29T15:22:53;4.40;;;4.00;;
4102;SDS011;2065;49.790;9.620;2022-07-29T15:25:22;5.87;;;5.37;;
4102;SDS011;2065;49.790;9.620;2022-07-29T15:27:49;6.23;;;5.63;;
4102;SDS011;2065;49.790;9.620;2022-07-29T15:30:16;4.93;;;4.53;;
4102;SDS011;2065;49.790;9.620;2022-07-29T15:32:43;7.10;;;5.50;;
4102;SDS011;2065;49.790;9.620;2022-07-29T15:35:10;6.40;;;5.50;;
4102;SDS011;2065;49.790;9.620;2022-07-29T15:37:38;5.40;;;4.90;;
4102;SDS011;2065;49.790;9.620;2022-07-29T15:40:07;5.10;;;4.70;;
4102;SDS011;2065;49.790;9.620;2022-07-29T15:42:35;6.73;;;5.50;;
4102;SDS011;2065;49.790;9.620;2022-07-29T15:45:03;4.77;;;4.37;;
4102;SDS011;2065;49.790;9.620;2022-07-29T15:47:30;6.10;;;5.50;;
4102;SDS011;2065;49.790;9.620;2022-07-29T15:49:57;5.57;;;5.07;;
4102;SDS011;2065;49.790;9.620;2022-07-29T15:52:24;4.73;;;4.40;;
4102;SDS011;2065;49.790;9.620;2022-07-29T15:54:51;6.27;;;5.67;;
4102;SDS011;2065;49.790;9.620;2022-07-29T16:01:29;6.70;;;4.73;;
4102;SDS011;2065;49.790;9.620;2022-07-29T16:03:56;4.83;;;4.43;;
4102;SDS011;2065;49.790;9.620;2022-07-29T16:06:23;5.93;;;5.40;;
4102;SDS011;2065;49.790;9.620;2022-07-29T16:09:40;6.53;;;4.37;;
4102;SDS011;2065;49.790;9.620;2022-07-29T16:12:07;5.50;;;4.50;;
4102;SDS011;2065;49.790;9.620;2022-07-29T16:14:34;4.63;;;4.23;;
4102;SDS011;2065;49.790;9.620;2022-07-29T16:18:16;5.03;;;4.63;;
4102;SDS011;2065;49.790;9.620;2022-07-29T16:20:43;5.67;;;5.17;;
4102;SDS011;2065;49.790;9.620;2022-07-29T16:23:10;5.63;;;5.13;;
4102;SDS011;2065;49.790;9.620;2022-07-29T16:25:37;6.13;;;5.47;;
4102;SDS011;2065;49.790;9.620;2022-07-29T16:36:20;5.70;;;5.10;;
4102;SDS011;2065;49.790;9.620;2022-07-29T16:38:47;5.43;;;4.93;;
4102;SDS011;2065;49.790;9.620;2022-07-29T16:45:21;5.20;;;4.80;;
4102;SDS011;2065;49.790;9.620;2022-07-29T16:47:48;5.53;;;5.13;;
4102;SDS011;2065;49.790;9.620;2022-07-29T16:50:15;6.30;;;5.50;;
4102;SDS011;2065;49.790;9.620;2022-07-29T16:52:43;6.57;;;5.97;;
4102;SDS011;2065;49.790;9.620;2022-07-29T16:55:10;7.20;;;6.50;;
4102;SDS011;2065;49.790;9.620;2022-07-29T16:57:37;5.93;;;5.20;;
4102;SDS011;2065;49.790;9.620;2022-07-29T17:00:06;5.90;;;5.20;;
4102;SDS011;2065;49.790;9.620;2022-07-29T17:02:33;6.97;;;6.27;;
4102;SDS011;2065;49.790;9.620;2022-07-29T17:05:03;14.53;;;10.13;;
4102;SDS011;2065;49.790;9.620;2022-07-29T17:07:30;8.03;;;6.20;;
4102;SDS011;2065;49.790;9.620;2022-07-29T17:16:58;7.57;;;6.57;;
4102;SDS011;2065;49.790;9.620;2022-07-29T17:19:27;11.40;;;6.97;;
4102;SDS011;2065;49.790;9.620;2022-07-29T17:21:55;9.10;;;7.90;;
4102;SDS011;2065;49.790;9.620;2022-07-29T17:31:49;6.63;;;6.10;;
4102;SDS011;2065;49.790;9.620;2022-07-29T17:34:16;8.50;;;6.33;;
4102;SDS011;2065;49.790;9.620;2022-07-29T17:36:42;7.23;;;6.60;;
4102;SDS011;2065;49.790;9.620;2022-07-29T17:39:09;6.80;;;6.10;;
4102;SDS011;2065;49.790;9.620;2022-07-29T17:45:42;8.83;;;7.73;;
4102;SDS011;2065;49.790;9.620;2022-07-29T17:48:10;7.30;;;6.40;;
4102;SDS011;2065;49.790;9.620;2022-07-29T17:50:37;7.00;;;6.40;;
4102;SDS011;2065;49.790;9.620;2022-07-29T17:53:04;7.23;;;6.40;;
4102;SDS011;2065;49.790;9.620;2022-07-29T17:55:31;9.37;;;6.40;;
4102;SDS011;2065;49.790;9.620;2022-07-29T17:57:58;6.83;;;6.23;;
4102;SDS011;2065;49.790;9.620;2022-07-29T18:00:25;9.60;;;5.77;;
4102;SDS011;2065;49.790;9.620;2022-07-29T18:02:52;6.50;;;5.90;;
4102;SDS011;2065;49.790;9.620;2022-07-29T18:05:20;6.57;;;5.73;;
4102;SDS011;2065;49.790;9.620;2022-07-29T18:11:54;9.77;;;7.13;;
4102;SDS011;2065;49.790;9.620;2022-07-29T18:14:21;7.03;;;6.40;;
4102;SDS011;2065;49.790;9.620;2022-07-29T18:16:48;7.30;;;6.70;;
4102;SDS011;2065;49.790;9.620;2022-07-29T18:19:15;7.27;;;6.50;;
4102;SDS011;2065;49.790;9.620;2022-07-29T18:21:43;7.73;;;5.80;;
4102;SDS011;2065;49.790;9.620;2022-07-29T18:24:10;8.10;;;7.30;;
4102;SDS011;2065;49.790;9.620;2022-07-29T18:27:02;8.17;;;7.27;;
4102;SDS011;2065;49.790;9.620;2022-07-29T18:29:29;7.30;;;6.60;;
4102;SDS011;2065;49.790;9.620;2022-07-29T18:31:56;9.33;;;7.40;;
4102;SDS011;2065;49.790;9.620;2022-07-29T18:34:24;12.10;;;7.03;;
4102;SDS011;2065;49.790;9.620;2022-07-29T18:36:52;9.93;;;8.13;;
4102;SDS011;2065;49.790;9.620;2022-07-29T18:39:19;9.07;;;8.17;;
4102;SDS011;2065;49.790;9.620;2022-07-29T18:44:42;9.73;;;7.40;;
4102;SDS011;2065;49.790;9.620;2022-07-29T18:47:09;12.73;;;7.07;;
4102;SDS011;2065;49.790;9.620;2022-07-29T18:49:36;8.30;;;7.40;;
4102;SDS011;2065;49.790;9.620;2022-07-29T18:52:05;8.90;;;7.20;;
4102;SDS011;2065;49.790;9.620;2022-07-29T18:54:56;9.43;;;8.10;;
4102;SDS011;2065;49.790;9.620;2022-07-29T18:57:23;7.93;;;7.10;;
4102;SDS011;2065;49.790;9.620;2022-07-29T18:59:50;11.10;;;6.80;;
4102;SDS011;2065;49.790;9.620;2022-07-29T19:02:18;7.90;;;6.77;;
4102;SDS011;2065;49.790;9.620;2022-07-29T19:04:45;7.70;;;7.10;;
4102;SDS011;2065;49.790;9.620;2022-07-29T19:07:13;8.40;;;7.57;;
4102;SDS011;2065;49.790;9.620;2022-07-29T19:09:41;8.13;;;6.57;;
4102;SDS011;2065;49.790;9.620;2022-07-29T19:15:01;6.80;;;6.17;;
4102;SDS011;2065;49.790;9.620;2022-07-29T19:17:28;7.33;;;6.70;;
4102;SDS011;2065;49.790;9.620;2022-07-29T19:19:55;8.07;;;6.70;;
4102;SDS011;2065;49.790;9.620;2022-07-29T19:22:23;7.40;;;6.70;;
4102;SDS011;2065;49.790;9.620;2022-07-29T19:28:57;8.33;;;6.90;;
4102;SDS011;2065;49.790;9.620;2022-07-29T19:31:24;8.47;;;7.23;;
4102;SDS011;2065;49.790;9.620;2022-07-29T19:33:51;9.30;;;7.70;;